sensor_id;sensor_type;location;lat;lon;timestamp;P1;durP1;ratioP1;P2;durP2;ratioP2
22107;SDS011;11220;48.812;9.128;2023-10-19T00:00:32;0.22;;;0.22;;
22107;SDS011;11220;48.812;9.128;2023-10-19T00:02:59;0.40;;;0.40;;
22107;SDS011;11220;48.812;9.128;2023-10-19T00:05:27;0.30;;;0.30;;
22107;SDS011;11220;48.812;9.128;2023-10-19T00:07:54;0.20;;;0.20;;
22107;SDS011;11220;48.812;9.128;2023-10-19T00:10:22;0.40;;;0.40;;
22107;SDS011;11220;48.812;9.128;2023-10-19T00:12:50;0.28;;;0.22;;
22107;SDS011;11220;48.812;9.128;2023-10-19T00:15:24;0.20;;;0.20;;
22107;SDS011;11220;48.812;9.128;2023-10-19T00:17:55;0.20;;;0.15;;
22107;SDS011;11220;48.812;9.128;2023-10-19T00:20:20;0.35;;;0.20;;
22107;SDS011;11220;48.812;9.128;2023-10-19T00:23:00;0.20;;;0.20;;
22107;SDS011;11220;48.812;9.128;2023-10-19T00:27:56;0.20;;;0.10;;
22107;SDS011;11220;48.812;9.128;2023-10-19T00:30:25;0.30;;;0.20;;
22107;SDS011;11220;48.812;9.128;2023-10-19T00:32:55;0.32;;;0.20;;
22107;SDS011;11220;48.812;9.128;2023-10-19T00:35:21;0.20;;;0.20;;
22107;SDS011;11220;48.812;9.128;2023-10-19T00:37:54;0.25;;;0.25;;
22107;SDS011;11220;48.812;9.128;2023-10-19T00:40:23;0.20;;;0.20;;
22107;SDS011;11220;48.812;9.128;2023-10-19T00:43:02;0.40;;;0.22;;
22107;SDS011;11220;48.812;9.128;2023-10-19T00:45:33;0.28;;;0.28;;
22107;SDS011;11220;48.812;9.128;2023-10-19T00:48:05;0.20;;;0.20;;
22107;SDS011;11220;48.812;9.128;2023-10-19T00:50:33;0.30;;;0.30;;
22107;SDS011;11220;48.812;9.128;2023-10-19T00:53:00;0.20;;;0.20;;
22107;SDS011;11220;48.812;9.128;2023-10-19T00:55:29;0.30;;;0.20;;
22107;SDS011;11220;48.812;9.128;2023-10-19T00:57:55;0.20;;;0.20;;
22107;SDS011;11220;48.812;9.128;2023-10-19T01:00:22;0.20;;;0.20;;
22107;SDS011;11220;48.812;9.128;2023-10-19T01:02:59;0.20;;;0.10;;
22107;SDS011;11220;48.812;9.128;2023-10-19T01:05:26;0.20;;;0.10;;
22107;SDS011;11220;48.812;9.128;2023-10-19T01:08:00;0.10;;;0.10;;
22107;SDS011;11220;48.812;9.128;2023-10-19T01:10:27;0.20;;;0.20;;
22107;SDS011;11220;48.812;9.128;2023-10-19T01:12:53;0.22;;;0.22;;
22107;SDS011;11220;48.812;9.128;2023-10-19T01:15:21;0.10;;;0.10;;
22107;SDS011;11220;48.812;9.128;2023-10-19T01:17:53;0.40;;;0.30;;
22107;SDS011;11220;48.812;9.128;2023-10-19T01:20:23;0.20;;;0.20;;
22107;SDS011;11220;48.812;9.128;2023-10-19T01:25:55;0.40;;;0.17;;
22107;SDS011;11220;48.812;9.128;2023-10-19T01:31:11;0.10;;;0.10;;
22107;SDS011;11220;48.812;9.128;2023-10-19T01:33:55;0.20;;;0.20;;
22107;SDS011;11220;48.812;9.128;2023-10-19T01:36:22;0.45;;;0.20;;
22107;SDS011;11220;48.812;9.128;2023-10-19T01:38:48;0.20;;;0.20;;
22107;SDS011;11220;48.812;9.128;2023-10-19T01:41:14;0.20;;;0.20;;
22107;SDS011;11220;48.812;9.128;2023-10-19T01:43:43;0.15;;;0.15;;
22107;SDS011;11220;48.812;9.128;2023-10-19T01:46:10;0.20;;;0.20;;
22107;SDS011;11220;48.812;9.128;2023-10-19T01:48:39;0.20;;;0.20;;
22107;SDS011;11220;48.812;9.128;2023-10-19T01:51:06;0.28;;;0.20;;
22107;SDS011;11220;48.812;9.128;2023-10-19T01:53:35;0.22;;;0.20;;
22107;SDS011;11220;48.812;9.128;2023-10-19T01:56:04;0.13;;;0.13;;
22107;SDS011;11220;48.812;9.128;2023-10-19T01:58:35;0.30;;;0.30;;
22107;SDS011;11220;48.812;9.128;2023-10-19T02:03:42;0.30;;;0.30;;
22107;SDS011;11220;48.812;9.128;2023-10-19T02:06:11;0.20;;;0.20;;
22107;SDS011;11220;48.812;9.128;2023-10-19T02:08:55;0.20;;;0.20;;
22107;SDS011;11220;48.812;9.128;2023-10-19T02:11:46;0.47;;;0.30;;
22107;SDS011;11220;48.812;9.128;2023-10-19T02:14:13;0.10;;;0.10;;
22107;SDS011;11220;48.812;9.128;2023-10-19T02:16:44;0.20;;;0.20;;
22107;SDS011;11220;48.812;9.128;2023-10-19T02:19:12;0.20;;;0.20;;
22107;SDS011;11220;48.812;9.128;2023-10-19T02:21:38;0.43;;;0.20;;
22107;SDS011;11220;48.812;9.128;2023-10-19T02:24:07;0.60;;;0.20;;
22107;SDS011;11220;48.812;9.128;2023-10-19T02:26:33;0.20;;;0.10;;
22107;SDS011;11220;48.812;9.128;2023-10-19T02:29:00;0.20;;;0.20;;
22107;SDS011;11220;48.812;9.128;2023-10-19T02:31:28;0.15;;;0.10;;
22107;SDS011;11220;48.812;9.128;2023-10-19T02:33:54;0.20;;;0.20;;
22107;SDS011;11220;48.812;9.128;2023-10-19T02:38:54;0.35;;;0.25;;
22107;SDS011;11220;48.812;9.128;2023-10-19T02:41:23;0.10;;;0.10;;
22107;SDS011;11220;48.812;9.128;2023-10-19T02:43:49;0.20;;;0.20;;
22107;SDS011;11220;48.812;9.128;2023-10-19T02:46:27;0.20;;;0.20;;
22107;SDS011;11220;48.812;9.128;2023-10-19T02:48:53;0.40;;;0.30;;
22107;SDS011;11220;48.812;9.128;2023-10-19T02:51:19;0.20;;;0.20;;
22107;SDS011;11220;48.812;9.128;2023-10-19T02:53:45;0.30;;;0.30;;
22107;SDS011;11220;48.812;9.128;2023-10-19T02:56:12;0.13;;;0.13;;
22107;SDS011;11220;48.812;9.128;2023-10-19T02:58:41;0.28;;;0.28;;
22107;SDS011;11220;48.812;9.128;2023-10-19T03:01:15;0.20;;;0.20;;
22107;SDS011;11220;48.812;9.128;2023-10-19T03:03:46;0.20;;;0.20;;
22107;SDS011;11220;48.812;9.128;2023-10-19T03:06:19;0.38;;;0.20;;
22107;SDS011;11220;48.812;9.128;2023-10-19T03:08:46;0.20;;;0.20;;
22107;SDS011;11220;48.812;9.128;2023-10-19T03:11:13;0.35;;;0.25;;
22107;SDS011;11220;48.812;9.128;2023-10-19T03:13:39;0.30;;;0.30;;
22107;SDS011;11220;48.812;9.128;2023-10-19T03:16:06;0.20;;;0.20;;
22107;SDS011;11220;48.812;9.128;2023-10-19T03:18:35;0.30;;;0.30;;
22107;SDS011;11220;48.812;9.128;2023-10-19T03:21:03;0.28;;;0.28;;
22107;SDS011;11220;48.812;9.128;2023-10-19T03:23:29;0.20;;;0.20;;
22107;SDS011;11220;48.812;9.128;2023-10-19T03:25:59;0.28;;;0.28;;
22107;SDS011;11220;48.812;9.128;2023-10-19T03:28:47;0.30;;;0.30;;
22107;SDS011;11220;48.812;9.128;2023-10-19T03:31:13;0.17;;;0.17;;
22107;SDS011;11220;48.812;9.128;2023-10-19T03:33:43;0.30;;;0.30;;
22107;SDS011;11220;48.812;9.128;2023-10-19T03:36:22;0.40;;;0.40;;
22107;SDS011;11220;48.812;9.128;2023-10-19T03:38:48;0.35;;;0.30;;
22107;SDS011;11220;48.812;9.128;2023-10-19T03:41:16;0.28;;;0.28;;
22107;SDS011;11220;48.812;9.128;2023-10-19T03:43:46;0.20;;;0.20;;
22107;SDS011;11220;48.812;9.128;2023-10-19T03:46:13;0.25;;;0.20;;
22107;SDS011;11220;48.812;9.128;2023-10-19T03:48:56;0.28;;;0.25;;
22107;SDS011;11220;48.812;9.128;2023-10-19T03:51:36;0.52;;;0.45;;
22107;SDS011;11220;48.812;9.128;2023-10-19T03:54:08;0.15;;;0.10;;
22107;SDS011;11220;48.812;9.128;2023-10-19T03:56:48;0.20;;;0.20;;
22107;SDS011;11220;48.812;9.128;2023-10-19T03:59:15;0.37;;;0.33;;
22107;SDS011;11220;48.812;9.128;2023-10-19T04:01:42;0.25;;;0.25;;
22107;SDS011;11220;48.812;9.128;2023-10-19T04:04:08;0.20;;;0.20;;
22107;SDS011;11220;48.812;9.128;2023-10-19T04:06:37;0.35;;;0.30;;
22107;SDS011;11220;48.812;9.128;2023-10-19T04:09:09;0.30;;;0.20;;
22107;SDS011;11220;48.812;9.128;2023-10-19T04:11:34;0.20;;;0.20;;
22107;SDS011;11220;48.812;9.128;2023-10-19T04:14:16;0.40;;;0.30;;
22107;SDS011;11220;48.812;9.128;2023-10-19T04:16:42;0.30;;;0.25;;
22107;SDS011;11220;48.812;9.128;2023-10-19T04:19:09;0.25;;;0.25;;
22107;SDS011;11220;48.812;9.128;2023-10-19T04:21:35;0.17;;;0.17;;
22107;SDS011;11220;48.812;9.128;2023-10-19T04:24:04;0.38;;;0.38;;
22107;SDS011;11220;48.812;9.128;2023-10-19T04:26:32;0.28;;;0.22;;
22107;SDS011;11220;48.812;9.128;2023-10-19T04:29:02;0.40;;;0.30;;
22107;SDS011;11220;48.812;9.128;2023-10-19T04:31:34;0.13;;;0.13;;
22107;SDS011;11220;48.812;9.128;2023-10-19T04:34:02;0.20;;;0.20;;
22107;SDS011;11220;48.812;9.128;2023-10-19T04:36:32;0.30;;;0.30;;
22107;SDS011;11220;48.812;9.128;2023-10-19T04:38:59;0.40;;;0.30;;
22107;SDS011;11220;48.812;9.128;2023-10-19T04:41:25;0.30;;;0.30;;
22107;SDS011;11220;48.812;9.128;2023-10-19T04:43:52;0.30;;;0.30;;
22107;SDS011;11220;48.812;9.128;2023-10-19T04:46:19;0.30;;;0.20;;
22107;SDS011;11220;48.812;9.128;2023-10-19T04:48:45;0.47;;;0.40;;
22107;SDS011;11220;48.812;9.128;2023-10-19T04:51:11;0.20;;;0.20;;
22107;SDS011;11220;48.812;9.128;2023-10-19T04:53:37;0.28;;;0.28;;
22107;SDS011;11220;48.812;9.128;2023-10-19T04:56:04;0.40;;;0.30;;
22107;SDS011;11220;48.812;9.128;2023-10-19T04:58:30;0.30;;;0.30;;
22107;SDS011;11220;48.812;9.128;2023-10-19T05:00:56;0.20;;;0.20;;
22107;SDS011;11220;48.812;9.128;2023-10-19T05:03:24;0.20;;;0.20;;
22107;SDS011;11220;48.812;9.128;2023-10-19T05:05:50;0.20;;;0.20;;
22107;SDS011;11220;48.812;9.128;2023-10-19T05:08:16;0.55;;;0.30;;
22107;SDS011;11220;48.812;9.128;2023-10-19T05:10:41;0.20;;;0.20;;
22107;SDS011;11220;48.812;9.128;2023-10-19T05:13:07;0.28;;;0.28;;
22107;SDS011;11220;48.812;9.128;2023-10-19T05:15:33;0.30;;;0.30;;
22107;SDS011;11220;48.812;9.128;2023-10-19T05:18:01;0.20;;;0.20;;
22107;SDS011;11220;48.812;9.128;2023-10-19T05:20:27;0.30;;;0.30;;
22107;SDS011;11220;48.812;9.128;2023-10-19T05:22:52;0.45;;;0.20;;
22107;SDS011;11220;48.812;9.128;2023-10-19T05:25:18;0.28;;;0.25;;
22107;SDS011;11220;48.812;9.128;2023-10-19T05:27:43;0.20;;;0.20;;
22107;SDS011;11220;48.812;9.128;2023-10-19T05:30:10;0.25;;;0.22;;
22107;SDS011;11220;48.812;9.128;2023-10-19T05:32:36;0.30;;;0.30;;
22107;SDS011;11220;48.812;9.128;2023-10-19T05:35:03;0.30;;;0.30;;
22107;SDS011;11220;48.812;9.128;2023-10-19T05:37:29;0.30;;;0.30;;
22107;SDS011;11220;48.812;9.128;2023-10-19T05:39:55;0.20;;;0.20;;
22107;SDS011;11220;48.812;9.128;2023-10-19T05:42:21;0.20;;;0.20;;
22107;SDS011;11220;48.812;9.128;2023-10-19T05:44:47;0.20;;;0.20;;
22107;SDS011;11220;48.812;9.128;2023-10-19T05:47:12;0.10;;;0.10;;
22107;SDS011;11220;48.812;9.128;2023-10-19T05:49:38;0.43;;;0.30;;
22107;SDS011;11220;48.812;9.128;2023-10-19T05:52:03;0.13;;;0.13;;
22107;SDS011;11220;48.812;9.128;2023-10-19T05:54:29;0.63;;;0.17;;
22107;SDS011;11220;48.812;9.128;2023-10-19T05:56:55;0.20;;;0.20;;
22107;SDS011;11220;48.812;9.128;2023-10-19T05:59:21;0.20;;;0.20;;
22107;SDS011;11220;48.812;9.128;2023-10-19T06:01:48;0.20;;;0.20;;
22107;SDS011;11220;48.812;9.128;2023-10-19T06:04:14;0.10;;;0.10;;
22107;SDS011;11220;48.812;9.128;2023-10-19T06:06:39;0.28;;;0.22;;
22107;SDS011;11220;48.812;9.128;2023-10-19T06:09:05;0.10;;;0.10;;
22107;SDS011;11220;48.812;9.128;2023-10-19T06:11:33;0.20;;;0.20;;
22107;SDS011;11220;48.812;9.128;2023-10-19T06:14:02;0.10;;;0.10;;
22107;SDS011;11220;48.812;9.128;2023-10-19T06:16:34;0.10;;;0.10;;
22107;SDS011;11220;48.812;9.128;2023-10-19T06:19:00;0.10;;;0.10;;
22107;SDS011;11220;48.812;9.128;2023-10-19T06:21:25;0.60;;;0.20;;
22107;SDS011;11220;48.812;9.128;2023-10-19T06:23:51;0.20;;;0.20;;
22107;SDS011;11220;48.812;9.128;2023-10-19T06:26:18;0.20;;;0.10;;
22107;SDS011;11220;48.812;9.128;2023-10-19T06:28:44;0.10;;;0.10;;
22107;SDS011;11220;48.812;9.128;2023-10-19T06:31:09;0.20;;;0.10;;
22107;SDS011;11220;48.812;9.128;2023-10-19T06:33:35;0.20;;;0.10;;
22107;SDS011;11220;48.812;9.128;2023-10-19T06:36:01;0.10;;;0.10;;
22107;SDS011;11220;48.812;9.128;2023-10-19T06:38:28;0.35;;;0.10;;
22107;SDS011;11220;48.812;9.128;2023-10-19T06:40:54;0.10;;;0.10;;
22107;SDS011;11220;48.812;9.128;2023-10-19T06:43:20;0.10;;;0.10;;
22107;SDS011;11220;48.812;9.128;2023-10-19T06:45:48;0.30;;;0.10;;
22107;SDS011;11220;48.812;9.128;2023-10-19T06:48:14;0.00;;;0.00;;
22107;SDS011;11220;48.812;9.128;2023-10-19T06:50:40;0.10;;;0.10;;
22107;SDS011;11220;48.812;9.128;2023-10-19T06:53:05;0.28;;;0.13;;
22107;SDS011;11220;48.812;9.128;2023-10-19T06:55:32;0.10;;;0.10;;
22107;SDS011;11220;48.812;9.128;2023-10-19T06:57:58;0.10;;;0.10;;
22107;SDS011;11220;48.812;9.128;2023-10-19T07:00:24;0.10;;;0.10;;
22107;SDS011;11220;48.812;9.128;2023-10-19T07:02:52;0.10;;;0.10;;
22107;SDS011;11220;48.812;9.128;2023-10-19T07:05:20;0.10;;;0.10;;
22107;SDS011;11220;48.812;9.128;2023-10-19T07:07:47;0.03;;;0.03;;
22107;SDS011;11220;48.812;9.128;2023-10-19T07:10:14;0.10;;;0.10;;
22107;SDS011;11220;48.812;9.128;2023-10-19T07:12:43;0.10;;;0.00;;
22107;SDS011;11220;48.812;9.128;2023-10-19T07:15:11;0.10;;;0.10;;
22107;SDS011;11220;48.812;9.128;2023-10-19T07:17:39;0.20;;;0.10;;
22107;SDS011;11220;48.812;9.128;2023-10-19T07:20:08;0.10;;;0.10;;
22107;SDS011;11220;48.812;9.128;2023-10-19T07:22:47;0.00;;;0.00;;
22107;SDS011;11220;48.812;9.128;2023-10-19T07:25:13;0.22;;;0.10;;
22107;SDS011;11220;48.812;9.128;2023-10-19T07:27:38;0.30;;;0.10;;
22107;SDS011;11220;48.812;9.128;2023-10-19T07:30:07;0.00;;;0.00;;
22107;SDS011;11220;48.812;9.128;2023-10-19T07:32:34;0.08;;;0.08;;
22107;SDS011;11220;48.812;9.128;2023-10-19T07:35:00;0.10;;;0.10;;
22107;SDS011;11220;48.812;9.128;2023-10-19T07:37:26;0.20;;;0.10;;
22107;SDS011;11220;48.812;9.128;2023-10-19T07:39:52;0.40;;;0.20;;
22107;SDS011;11220;48.812;9.128;2023-10-19T07:42:21;0.10;;;0.10;;
22107;SDS011;11220;48.812;9.128;2023-10-19T07:44:47;0.77;;;0.17;;
22107;SDS011;11220;48.812;9.128;2023-10-19T07:47:14;0.10;;;0.10;;
22107;SDS011;11220;48.812;9.128;2023-10-19T07:49:39;0.10;;;0.10;;
22107;SDS011;11220;48.812;9.128;2023-10-19T07:52:05;0.20;;;0.17;;
22107;SDS011;11220;48.812;9.128;2023-10-19T07:54:36;0.10;;;0.10;;
22107;SDS011;11220;48.812;9.128;2023-10-19T07:57:02;0.20;;;0.20;;
22107;SDS011;11220;48.812;9.128;2023-10-19T07:59:34;0.10;;;0.10;;
22107;SDS011;11220;48.812;9.128;2023-10-19T08:02:00;0.10;;;0.10;;
22107;SDS011;11220;48.812;9.128;2023-10-19T08:04:27;0.20;;;0.10;;
22107;SDS011;11220;48.812;9.128;2023-10-19T08:06:53;0.10;;;0.10;;
22107;SDS011;11220;48.812;9.128;2023-10-19T08:09:20;0.10;;;0.10;;
22107;SDS011;11220;48.812;9.128;2023-10-19T08:11:48;0.20;;;0.20;;
22107;SDS011;11220;48.812;9.128;2023-10-19T08:14:14;0.10;;;0.10;;
22107;SDS011;11220;48.812;9.128;2023-10-19T08:16:39;0.00;;;0.00;;
22107;SDS011;11220;48.812;9.128;2023-10-19T08:19:06;0.10;;;0.10;;
22107;SDS011;11220;48.812;9.128;2023-10-19T08:21:32;0.20;;;0.20;;
22107;SDS011;11220;48.812;9.128;2023-10-19T08:23:59;0.20;;;0.20;;
22107;SDS011;11220;48.812;9.128;2023-10-19T08:26:29;0.10;;;0.10;;
22107;SDS011;11220;48.812;9.128;2023-10-19T08:28:55;0.10;;;0.10;;
22107;SDS011;11220;48.812;9.128;2023-10-19T08:31:21;0.10;;;0.10;;
22107;SDS011;11220;48.812;9.128;2023-10-19T08:33:46;0.10;;;0.10;;
22107;SDS011;11220;48.812;9.128;2023-10-19T08:36:16;0.00;;;0.00;;
22107;SDS011;11220;48.812;9.128;2023-10-19T08:38:46;0.00;;;0.00;;
22107;SDS011;11220;48.812;9.128;2023-10-19T08:41:13;0.10;;;0.10;;
22107;SDS011;11220;48.812;9.128;2023-10-19T08:43:40;0.10;;;0.10;;
22107;SDS011;11220;48.812;9.128;2023-10-19T08:46:06;0.10;;;0.00;;
22107;SDS011;11220;48.812;9.128;2023-10-19T08:48:33;0.10;;;0.10;;
22107;SDS011;11220;48.812;9.128;2023-10-19T08:51:01;0.10;;;0.10;;
22107;SDS011;11220;48.812;9.128;2023-10-19T08:53:33;0.10;;;0.10;;
22107;SDS011;11220;48.812;9.128;2023-10-19T08:56:04;0.20;;;0.05;;
22107;SDS011;11220;48.812;9.128;2023-10-19T08:58:31;0.10;;;0.10;;
22107;SDS011;11220;48.812;9.128;2023-10-19T09:00:57;0.10;;;0.10;;
22107;SDS011;11220;48.812;9.128;2023-10-19T09:03:31;0.15;;;0.15;;
22107;SDS011;11220;48.812;9.128;2023-10-19T09:05:56;0.00;;;0.00;;
22107;SDS011;11220;48.812;9.128;2023-10-19T09:08:22;0.00;;;0.00;;
22107;SDS011;11220;48.812;9.128;2023-10-19T09:10:48;0.10;;;0.10;;
22107;SDS011;11220;48.812;9.128;2023-10-19T09:13:16;0.20;;;0.20;;
22107;SDS011;11220;48.812;9.128;2023-10-19T09:15:47;0.20;;;0.20;;
22107;SDS011;11220;48.812;9.128;2023-10-19T09:18:21;0.15;;;0.10;;
22107;SDS011;11220;48.812;9.128;2023-10-19T09:20:50;0.10;;;0.10;;
22107;SDS011;11220;48.812;9.128;2023-10-19T09:23:32;0.10;;;0.10;;
22107;SDS011;11220;48.812;9.128;2023-10-19T09:26:00;0.20;;;0.20;;
22107;SDS011;11220;48.812;9.128;2023-10-19T09:28:30;0.20;;;0.10;;
22107;SDS011;11220;48.812;9.128;2023-10-19T09:30:59;0.17;;;0.05;;
22107;SDS011;11220;48.812;9.128;2023-10-19T09:33:25;0.10;;;0.08;;
22107;SDS011;11220;48.812;9.128;2023-10-19T09:35:52;0.10;;;0.10;;
22107;SDS011;11220;48.812;9.128;2023-10-19T09:38:19;0.10;;;0.10;;
22107;SDS011;11220;48.812;9.128;2023-10-19T09:40:48;0.10;;;0.10;;
22107;SDS011;11220;48.812;9.128;2023-10-19T09:43:37;0.05;;;0.00;;
22107;SDS011;11220;48.812;9.128;2023-10-19T09:46:06;0.10;;;0.10;;
22107;SDS011;11220;48.812;9.128;2023-10-19T09:48:39;0.20;;;0.10;;
22107;SDS011;11220;48.812;9.128;2023-10-19T09:51:07;0.10;;;0.10;;
22107;SDS011;11220;48.812;9.128;2023-10-19T09:53:34;0.00;;;0.00;;
22107;SDS011;11220;48.812;9.128;2023-10-19T09:56:01;0.05;;;0.00;;
22107;SDS011;11220;48.812;9.128;2023-10-19T09:58:33;0.20;;;0.10;;
22107;SDS011;11220;48.812;9.128;2023-10-19T10:01:02;0.25;;;0.10;;
22107;SDS011;11220;48.812;9.128;2023-10-19T10:03:44;0.20;;;0.20;;
22107;SDS011;11220;48.812;9.128;2023-10-19T10:06:11;0.10;;;0.10;;
22107;SDS011;11220;48.812;9.128;2023-10-19T10:08:39;0.10;;;0.10;;
22107;SDS011;11220;48.812;9.128;2023-10-19T10:11:20;0.20;;;0.20;;
22107;SDS011;11220;48.812;9.128;2023-10-19T10:13:51;0.28;;;0.10;;
22107;SDS011;11220;48.812;9.128;2023-10-19T10:16:18;0.10;;;0.10;;
22107;SDS011;11220;48.812;9.128;2023-10-19T10:18:49;0.40;;;0.10;;
22107;SDS011;11220;48.812;9.128;2023-10-19T10:21:17;0.10;;;0.10;;
22107;SDS011;11220;48.812;9.128;2023-10-19T10:23:49;0.10;;;0.10;;
22107;SDS011;11220;48.812;9.128;2023-10-19T10:26:15;0.10;;;0.10;;
22107;SDS011;11220;48.812;9.128;2023-10-19T10:28:46;0.20;;;0.10;;
22107;SDS011;11220;48.812;9.128;2023-10-19T10:33:44;0.10;;;0.10;;
22107;SDS011;11220;48.812;9.128;2023-10-19T10:36:15;0.10;;;0.10;;
22107;SDS011;11220;48.812;9.128;2023-10-19T10:38:42;0.15;;;0.15;;
22107;SDS011;11220;48.812;9.128;2023-10-19T10:41:08;0.10;;;0.10;;
22107;SDS011;11220;48.812;9.128;2023-10-19T10:43:47;0.20;;;0.20;;
22107;SDS011;11220;48.812;9.128;2023-10-19T10:46:25;0.20;;;0.10;;
22107;SDS011;11220;48.812;9.128;2023-10-19T10:48:54;0.10;;;0.10;;
22107;SDS011;11220;48.812;9.128;2023-10-19T10:51:21;0.10;;;0.10;;
22107;SDS011;11220;48.812;9.128;2023-10-19T10:53:51;0.10;;;0.10;;
22107;SDS011;11220;48.812;9.128;2023-10-19T10:56:22;0.20;;;0.20;;
22107;SDS011;11220;48.812;9.128;2023-10-19T10:58:48;0.20;;;0.20;;
22107;SDS011;11220;48.812;9.128;2023-10-19T11:01:14;0.13;;;0.13;;
22107;SDS011;11220;48.812;9.128;2023-10-19T11:04:04;0.20;;;0.20;;
22107;SDS011;11220;48.812;9.128;2023-10-19T11:06:31;0.30;;;0.22;;
22107;SDS011;11220;48.812;9.128;2023-10-19T11:08:57;0.15;;;0.15;;
22107;SDS011;11220;48.812;9.128;2023-10-19T11:11:22;0.10;;;0.10;;
22107;SDS011;11220;48.812;9.128;2023-10-19T11:13:48;0.40;;;0.20;;
22107;SDS011;11220;48.812;9.128;2023-10-19T11:16:21;0.20;;;0.20;;
22107;SDS011;11220;48.812;9.128;2023-10-19T11:18:48;0.10;;;0.10;;
22107;SDS011;11220;48.812;9.128;2023-10-19T11:21:15;0.20;;;0.20;;
22107;SDS011;11220;48.812;9.128;2023-10-19T11:23:44;0.10;;;0.10;;
22107;SDS011;11220;48.812;9.128;2023-10-19T11:26:12;0.10;;;0.10;;
22107;SDS011;11220;48.812;9.128;2023-10-19T11:28:39;0.17;;;0.10;;
22107;SDS011;11220;48.812;9.128;2023-10-19T11:31:11;0.20;;;0.20;;
22107;SDS011;11220;48.812;9.128;2023-10-19T11:33:38;0.10;;;0.03;;
22107;SDS011;11220;48.812;9.128;2023-10-19T11:36:04;0.10;;;0.10;;
22107;SDS011;11220;48.812;9.128;2023-10-19T11:38:30;0.10;;;0.10;;
22107;SDS011;11220;48.812;9.128;2023-10-19T11:40:56;0.13;;;0.10;;
22107;SDS011;11220;48.812;9.128;2023-10-19T11:43:22;0.00;;;0.00;;
22107;SDS011;11220;48.812;9.128;2023-10-19T11:45:48;0.00;;;0.00;;
22107;SDS011;11220;48.812;9.128;2023-10-19T11:48:13;0.10;;;0.10;;
22107;SDS011;11220;48.812;9.128;2023-10-19T11:50:40;0.10;;;0.10;;
22107;SDS011;11220;48.812;9.128;2023-10-19T11:53:06;0.00;;;0.00;;
22107;SDS011;11220;48.812;9.128;2023-10-19T11:55:34;0.10;;;0.10;;
22107;SDS011;11220;48.812;9.128;2023-10-19T11:58:00;0.10;;;0.10;;
22107;SDS011;11220;48.812;9.128;2023-10-19T12:00:26;0.10;;;0.10;;
22107;SDS011;11220;48.812;9.128;2023-10-19T12:02:58;0.10;;;0.10;;
22107;SDS011;11220;48.812;9.128;2023-10-19T12:05:24;0.10;;;0.10;;
22107;SDS011;11220;48.812;9.128;2023-10-19T12:07:49;0.13;;;0.13;;
22107;SDS011;11220;48.812;9.128;2023-10-19T12:10:17;0.10;;;0.10;;
22107;SDS011;11220;48.812;9.128;2023-10-19T12:12:45;0.10;;;0.10;;
22107;SDS011;11220;48.812;9.128;2023-10-19T12:15:10;0.20;;;0.20;;
22107;SDS011;11220;48.812;9.128;2023-10-19T12:17:38;0.00;;;0.00;;
22107;SDS011;11220;48.812;9.128;2023-10-19T12:20:04;0.10;;;0.10;;
22107;SDS011;11220;48.812;9.128;2023-10-19T12:22:31;0.15;;;0.10;;
22107;SDS011;11220;48.812;9.128;2023-10-19T12:25:02;0.10;;;0.00;;
22107;SDS011;11220;48.812;9.128;2023-10-19T12:27:29;0.10;;;0.00;;
22107;SDS011;11220;48.812;9.128;2023-10-19T12:29:54;0.20;;;0.10;;
22107;SDS011;11220;48.812;9.128;2023-10-19T12:32:21;0.20;;;0.10;;
22107;SDS011;11220;48.812;9.128;2023-10-19T12:34:46;0.10;;;0.10;;
22107;SDS011;11220;48.812;9.128;2023-10-19T12:37:18;0.10;;;0.10;;
22107;SDS011;11220;48.812;9.128;2023-10-19T12:39:43;0.10;;;0.00;;
22107;SDS011;11220;48.812;9.128;2023-10-19T12:42:16;0.10;;;0.10;;
22107;SDS011;11220;48.812;9.128;2023-10-19T12:44:42;0.10;;;0.10;;
22107;SDS011;11220;48.812;9.128;2023-10-19T12:47:08;0.10;;;0.10;;
22107;SDS011;11220;48.812;9.128;2023-10-19T12:49:36;0.10;;;0.00;;
22107;SDS011;11220;48.812;9.128;2023-10-19T12:52:02;0.17;;;0.10;;
22107;SDS011;11220;48.812;9.128;2023-10-19T12:54:28;0.10;;;0.10;;
22107;SDS011;11220;48.812;9.128;2023-10-19T12:56:54;0.10;;;0.10;;
22107;SDS011;11220;48.812;9.128;2023-10-19T12:59:20;0.05;;;0.05;;
22107;SDS011;11220;48.812;9.128;2023-10-19T13:01:46;0.10;;;0.10;;
22107;SDS011;11220;48.812;9.128;2023-10-19T13:04:14;0.00;;;0.00;;
22107;SDS011;11220;48.812;9.128;2023-10-19T13:06:43;0.10;;;0.10;;
22107;SDS011;11220;48.812;9.128;2023-10-19T13:09:12;0.00;;;0.00;;
22107;SDS011;11220;48.812;9.128;2023-10-19T13:11:40;0.00;;;0.00;;
22107;SDS011;11220;48.812;9.128;2023-10-19T13:14:08;0.10;;;0.10;;
22107;SDS011;11220;48.812;9.128;2023-10-19T13:16:35;0.00;;;0.00;;
22107;SDS011;11220;48.812;9.128;2023-10-19T13:19:00;0.10;;;0.10;;
22107;SDS011;11220;48.812;9.128;2023-10-19T13:21:36;0.00;;;0.00;;
22107;SDS011;11220;48.812;9.128;2023-10-19T13:24:03;0.00;;;0.00;;
22107;SDS011;11220;48.812;9.128;2023-10-19T13:26:28;0.00;;;0.00;;
22107;SDS011;11220;48.812;9.128;2023-10-19T13:28:54;0.00;;;0.00;;
22107;SDS011;11220;48.812;9.128;2023-10-19T13:31:21;0.10;;;0.00;;
22107;SDS011;11220;48.812;9.128;2023-10-19T13:33:47;0.00;;;0.00;;
22107;SDS011;11220;48.812;9.128;2023-10-19T13:36:12;0.10;;;0.10;;
22107;SDS011;11220;48.812;9.128;2023-10-19T13:38:38;0.00;;;0.00;;
22107;SDS011;11220;48.812;9.128;2023-10-19T13:41:04;0.10;;;0.10;;
22107;SDS011;11220;48.812;9.128;2023-10-19T13:43:34;0.15;;;0.10;;
22107;SDS011;11220;48.812;9.128;2023-10-19T13:46:00;0.00;;;0.00;;
22107;SDS011;11220;48.812;9.128;2023-10-19T13:48:27;0.10;;;0.10;;
22107;SDS011;11220;48.812;9.128;2023-10-19T13:50:52;0.03;;;0.03;;
22107;SDS011;11220;48.812;9.128;2023-10-19T13:53:25;0.00;;;0.00;;
22107;SDS011;11220;48.812;9.128;2023-10-19T13:55:53;0.00;;;0.00;;
22107;SDS011;11220;48.812;9.128;2023-10-19T13:58:19;0.10;;;0.00;;
22107;SDS011;11220;48.812;9.128;2023-10-19T14:00:44;0.10;;;0.08;;
22107;SDS011;11220;48.812;9.128;2023-10-19T14:03:10;0.00;;;0.00;;
22107;SDS011;11220;48.812;9.128;2023-10-19T14:05:39;0.03;;;0.03;;
22107;SDS011;11220;48.812;9.128;2023-10-19T14:08:08;0.00;;;0.00;;
22107;SDS011;11220;48.812;9.128;2023-10-19T14:10:34;0.00;;;0.00;;
22107;SDS011;11220;48.812;9.128;2023-10-19T14:13:00;0.00;;;0.00;;
22107;SDS011;11220;48.812;9.128;2023-10-19T14:15:26;0.00;;;0.00;;
22107;SDS011;11220;48.812;9.128;2023-10-19T14:17:53;0.10;;;0.10;;
22107;SDS011;11220;48.812;9.128;2023-10-19T14:20:21;0.03;;;0.00;;
22107;SDS011;11220;48.812;9.128;2023-10-19T14:22:50;0.00;;;0.00;;
22107;SDS011;11220;48.812;9.128;2023-10-19T14:25:18;0.10;;;0.00;;
22107;SDS011;11220;48.812;9.128;2023-10-19T14:27:46;0.03;;;0.03;;
22107;SDS011;11220;48.812;9.128;2023-10-19T14:30:16;0.00;;;0.00;;
22107;SDS011;11220;48.812;9.128;2023-10-19T14:32:43;0.00;;;0.00;;
22107;SDS011;11220;48.812;9.128;2023-10-19T14:35:12;0.10;;;0.10;;
22107;SDS011;11220;48.812;9.128;2023-10-19T14:37:40;0.00;;;0.00;;
22107;SDS011;11220;48.812;9.128;2023-10-19T14:40:11;0.10;;;0.10;;
22107;SDS011;11220;48.812;9.128;2023-10-19T14:42:39;0.20;;;0.10;;
22107;SDS011;11220;48.812;9.128;2023-10-19T14:47:38;0.00;;;0.00;;
22107;SDS011;11220;48.812;9.128;2023-10-19T14:50:05;0.00;;;0.00;;
22107;SDS011;11220;48.812;9.128;2023-10-19T14:52:43;0.00;;;0.00;;
22107;SDS011;11220;48.812;9.128;2023-10-19T14:55:13;0.00;;;0.00;;
22107;SDS011;11220;48.812;9.128;2023-10-19T14:57:41;0.00;;;0.00;;
22107;SDS011;11220;48.812;9.128;2023-10-19T15:00:08;0.22;;;0.20;;
22107;SDS011;11220;48.812;9.128;2023-10-19T15:02:46;0.00;;;0.00;;
22107;SDS011;11220;48.812;9.128;2023-10-19T15:05:14;0.10;;;0.00;;
22107;SDS011;11220;48.812;9.128;2023-10-19T15:07:43;0.00;;;0.00;;
22107;SDS011;11220;48.812;9.128;2023-10-19T15:10:16;0.55;;;0.00;;
22107;SDS011;11220;48.812;9.128;2023-10-19T15:12:43;0.10;;;0.10;;